Time;durP1;ratioP1;P1;durP2;ratioP2;P2;SDS_P1;SDS_P2;PMS_P1;PMS_P2;Temp;Humidity;BMP_temperature;BMP_pressure;BME280_temperature;BME280_humidity;BME280_pressure;Samples;Min_cycle;Max_cycle;Signal;HPM_P1;HPM_P2
2021/11/02 00:00:11;;;;;;;36.60;28.93;;;;;;;12.81;88.47;98924.85;2843158;84;21064;-74
2021/11/02 00:04:14;;;;;;;41.20;28.52;;;;;;;12.76;88.04;98917.03;2842559;82;21020;-74
2021/11/02 00:08:16;;;;;;;34.95;28.05;;;;;;;12.87;88.50;98904.66;2842448;83;21061;-76
2021/11/02 00:12:18;;;;;;;35.48;29.12;;;;;;;12.99;88.22;98888.58;2857397;81;21060;-74
2021/11/02 00:16:22;;;;;;;42.35;29.42;;;;;;;13.00;87.16;98887.58;2846074;83;21001;-77
2021/11/02 00:20:23;;;;;;;40.20;29.05;;;;;;;12.91;87.72;98888.61;2828226;84;20997;-76
2021/11/02 00:28:39;;;;;;;33.98;26.25;;;;;;;12.63;89.22;98883.77;2827504;84;20997;-80
2021/11/02 00:32:43;;;;;;;34.18;26.60;;;;;;;12.55;90.42;98885.11;2827632;84;21076;-77
2021/11/02 00:36:45;;;;;;;30.15;25.00;;;;;;;12.52;90.87;98879.64;2827463;84;20989;-79
2021/11/02 00:40:47;;;;;;;36.05;25.57;;;;;;;12.55;91.26;98875.78;2827890;84;20993;-76
2021/11/02 00:44:55;;;;;;;36.33;24.63;;;;;;;12.53;90.98;98866.63;2827757;83;21056;-76
2021/11/02 00:48:52;;;;;;;28.20;22.40;;;;;;;12.46;91.60;98865.64;2825074;84;21029;-81
2021/11/02 00:52:54;;;;;;;30.25;22.80;;;;;;;12.33;92.91;98855.53;2827663;84;21274;-76
2021/11/02 00:56:56;;;;;;;32.15;22.85;;;;;;;12.28;93.12;98844.56;2816617;84;21045;-82
2021/11/02 01:00:57;;;;;;;30.75;23.20;;;;;;;12.21;93.84;98842.27;2806245;85;21037;-77
2021/11/02 01:04:59;;;;;;;31.02;23.45;;;;;;;12.20;93.92;98837.94;2806153;85;20982;-78
2021/11/02 01:09:04;;;;;;;25.60;20.37;;;;;;;12.27;93.81;98831.72;2805515;85;20990;-76
2021/11/02 01:13:05;;;;;;;30.77;22.73;;;;;;;12.32;93.74;98831.20;2805111;85;21307;-82
2021/11/02 01:17:07;;;;;;;30.02;25.23;;;;;;;12.20;95.04;98825.42;2805317;85;21021;-79
2021/11/02 01:21:09;;;;;;;28.60;23.25;;;;;;;12.28;94.12;98824.56;2806165;84;21029;-77
2021/11/02 01:25:12;;;;;;;35.95;24.55;;;;;;;12.35;93.97;98814.05;2805458;85;21526;-81
2021/11/02 01:29:15;;;;;;;34.63;22.00;;;;;;;12.41;93.62;98815.52;2810785;81;21010;-80
2021/11/02 01:33:17;;;;;;;30.37;22.67;;;;;;;12.35;94.03;98812.19;2809449;83;21029;-79
2021/11/02 01:37:19;;;;;;;28.42;22.22;;;;;;;12.22;94.48;98802.61;2796314;85;21070;-80
2021/11/02 01:41:25;;;;;;;23.95;20.60;;;;;;;12.27;94.46;98798.91;2847266;83;21030;-78
2021/11/02 01:45:27;;;;;;;25.45;20.02;;;;;;;12.10;95.69;98786.98;2852703;83;21081;-79
2021/11/02 01:49:28;;;;;;;19.30;16.52;;;;;;;12.03;96.09;98773.17;2808122;82;21025;-80
2021/11/02 01:53:31;;;;;;;25.45;19.40;;;;;;;11.98;96.03;98761.66;2805779;85;21656;-79
2021/11/02 01:57:32;;;;;;;27.60;17.25;;;;;;;12.01;96.22;98754.72;2805931;84;21046;-79
2021/11/02 02:02:01;;;;;;;28.35;18.57;;;;;;;12.07;95.97;98741.17;2806893;85;21049;-77
2021/11/02 02:06:28;;;;;;;23.22;18.95;;;;;;;12.14;95.28;98742.97;2806428;85;21064;-79
2021/11/02 02:10:53;;;;;;;;;;;;;;;12.21;94.68;98744.96;2793937;85;21033;-79
2021/11/02 02:15:12;;;;;;;24.40;18.17;;;;;;;12.16;94.80;98736.15;2806642;85;20180;-77
2021/11/02 02:19:45;;;;;;;21.10;16.90;;;;;;;12.16;94.94;98734.81;2805982;85;21044;-75
2021/11/02 02:24:07;;;;;;;23.60;19.50;;;;;;;12.17;95.05;98725.81;2806235;84;21006;-78
2021/11/02 02:28:25;;;;;;;22.35;17.42;;;;;;;12.26;94.90;98726.60;2794525;84;21046;-78
2021/11/02 02:32:28;;;;;;;29.67;21.00;;;;;;;12.45;94.64;98715.98;2780244;85;21045;-78
2021/11/02 02:36:32;;;;;;;24.43;18.57;;;;;;;12.62;93.89;98716.72;2806164;84;21053;-78
2021/11/02 02:40:35;;;;;;;26.75;22.10;;;;;;;12.59;93.22;98717.56;2815702;82;21375;-79
2021/11/02 02:44:37;;;;;;;21.35;17.45;;;;;;;12.54;93.10;98707.42;2833044;83;21083;-80
2021/11/02 02:48:41;;;;;;;23.18;18.05;;;;;;;12.50;93.37;98704.78;2855488;83;21045;-80
2021/11/02 02:52:45;;;;;;;21.62;16.93;;;;;;;12.40;93.53;98698.34;2854489;82;21319;-77
2021/11/02 02:56:46;;;;;;;25.45;17.70;;;;;;;12.37;93.85;98704.05;2854424;83;21017;-75
2021/11/02 03:00:48;;;;;;;20.88;16.87;;;;;;;12.39;93.81;98697.53;2855046;83;20992;-78
2021/11/02 03:04:53;;;;;;;18.82;16.32;;;;;;;12.32;94.10;98685.90;2854922;83;20966;-79
2021/11/02 03:08:55;;;;;;;19.67;16.20;;;;;;;12.29;93.91;98688.92;2854951;83;21002;-79
2021/11/02 03:13:02;;;;;;;19.25;15.25;;;;;;;12.39;94.42;98691.36;2855292;83;21014;-79
2021/11/02 03:17:11;;;;;;;17.82;13.40;;;;;;;12.50;94.01;98690.12;2854155;83;21093;-80
2021/11/02 03:56:35;;;;;;;9.98;3.98;;;;;;;11.63;96.09;98694.55;2858823;81;21038;-77
2021/11/02 04:00:45;;;;;;;4.15;3.75;;;;;;;11.45;96.61;98690.27;2837225;81;21077;-77
2021/11/02 05:19:47;;;;;;;2.52;2.33;;;;;;;10.23;100.00;98651.09;2830001;81;20979;-78
2021/11/02 06:01:50;;;;;;;4.20;3.80;;;;;;;10.31;100.00;98663.53;2807932;85;21033;-72
2021/11/02 06:09:54;;;;;;;4.37;3.90;;;;;;;10.31;100.00;98659.06;2808006;84;20939;-76
2021/11/02 06:32:13;;;;;;;6.70;5.22;;;;;;;10.29;100.00;98671.69;2808099;85;21009;-72
2021/11/02 06:45:25;;;;;;;8.15;6.87;;;;;;;10.28;100.00;98677.48;2807903;84;21049;-72
2021/11/02 07:18:58;;;;;;;5.83;4.65;;;;;;;10.18;100.00;98705.20;2806304;85;21017;-75
2021/11/02 08:47:47;;;;;;;6.20;4.87;;;;;;;10.14;100.00;98720.66;2848163;83;21088;-70
2021/11/02 08:51:03;;;;;;;4.65;4.25;;;;;;;10.13;100.00;98715.00;2834083;83;21029;-70
2021/11/02 08:55:08;;;;;;;6.35;3.35;;;;;;;10.14;100.00;98731.28;2848313;83;21292;-71
2021/11/02 08:59:10;;;;;;;4.73;3.97;;;;;;;10.18;100.00;98738.41;2848763;83;21508;-71
2021/11/02 09:03:22;;;;;;;3.40;2.72;;;;;;;10.21;100.00;98732.77;2848044;83;21084;-70
2021/11/02 09:07:27;;;;;;;1.98;1.80;;;;;;;10.17;100.00;98726.12;2848718;83;21040;-70
2021/11/02 09:11:30;;;;;;;2.70;2.45;;;;;;;10.24;100.00;98736.45;2848738;83;21109;-70
2021/11/02 09:15:34;;;;;;;3.33;2.45;;;;;;;10.32;99.47;98734.29;2848383;83;21060;-71
2021/11/02 09:19:36;;;;;;;2.67;1.80;;;;;;;10.32;98.85;98732.96;2848542;83;21044;-70
2021/11/02 09:23:43;;;;;;;1.82;1.72;;;;;;;10.37;98.60;98747.95;2848329;83;21055;-69
2021/11/02 09:27:48;;;;;;;2.67;2.17;;;;;;;10.47;97.98;98750.49;2848163;83;21032;-70
2021/11/02 09:31:55;;;;;;;2.05;1.80;;;;;;;10.54;98.84;98754.16;2851084;81;21016;-69
2021/11/02 09:36:04;;;;;;;2.10;1.90;;;;;;;10.60;97.58;98753.48;2853958;82;21032;-70
2021/11/02 09:40:17;;;;;;;2.90;1.80;;;;;;;10.59;96.76;98750.50;2853447;83;21001;-69
2021/11/02 09:44:54;;;;;;;1.82;1.67;;;;;;;10.66;97.02;98750.20;2852207;83;21037;-71
2021/11/02 09:49:42;;;;;;;1.57;1.47;;;;;;;10.58;96.83;98754.16;2854224;83;21016;-71
2021/11/02 09:54:13;;;;;;;5.90;3.22;;;;;;;10.68;96.00;98749.53;2853661;83;21063;-70
2021/11/02 09:58:50;;;;;;;2.45;1.90;;;;;;;10.73;95.26;98749.53;2855793;82;22284;-69
2021/11/02 10:03:17;;;;;;;2.70;2.37;;;;;;;10.68;94.93;98754.84;2862553;83;21059;-69
2021/11/02 10:07:35;;;;;;;1.75;1.65;;;;;;;10.64;94.41;98746.88;2863356;83;21028;-71
2021/11/02 10:11:44;;;;;;;1.55;1.32;;;;;;;10.69;93.04;98743.70;2795613;84;21030;-70
2021/11/02 10:16:11;;;;;;;2.17;2.02;;;;;;;10.74;93.08;98759.17;2863347;83;21055;-69
2021/11/02 10:20:21;;;;;;;2.47;2.20;;;;;;;10.76;93.93;98750.05;2795426;84;21101;-71
2021/11/02 10:24:38;;;;;;;4.95;3.33;;;;;;;10.83;94.12;98760.86;2788921;83;21044;-72
2021/11/02 10:29:19;;;;;;;3.25;2.58;;;;;;;10.85;93.02;98750.36;2863234;83;20981;-69
2021/11/02 10:33:37;;;;;;;4.12;2.90;;;;;;;10.95;92.80;98753.38;2863044;81;21659;-70
2021/11/02 10:37:55;;;;;;;4.78;3.98;;;;;;;11.06;92.59;98757.53;2862968;82;21036;-69
2021/11/02 10:42:11;;;;;;;6.25;3.70;;;;;;;11.15;91.99;98753.86;2862675;83;20993;-71
2021/11/02 10:46:15;;;;;;;3.40;3.10;;;;;;;11.23;90.31;98752.54;2796127;84;21018;-70
2021/11/02 10:50:19;;;;;;;5.58;3.60;;;;;;;11.33;89.98;98751.52;2863213;83;21032;-70
2021/11/02 10:54:49;;;;;;;3.30;2.00;;;;;;;11.41;90.86;98751.52;2863032;82;21086;-72
2021/11/02 10:58:55;;;;;;;2.45;2.12;;;;;;;11.48;88.95;98748.98;2856663;83;21045;-70
2021/11/02 11:02:56;;;;;;;5.72;3.12;;;;;;;11.60;88.50;98749.48;2842128;84;21037;-70
2021/11/02 11:06:59;;;;;;;5.83;3.35;;;;;;;11.73;88.66;98756.42;2842022;84;21056;-71
2021/11/02 11:11:03;;;;;;;6.78;3.67;;;;;;;11.82;89.70;98751.42;2841873;84;21025;-70
2021/11/02 11:15:07;;;;;;;2.72;2.42;;;;;;;11.73;85.58;98750.28;2841538;83;21044;-71
2021/11/02 11:19:27;;;;;;;3.42;2.25;;;;;;;11.73;87.63;98748.44;2842110;84;21008;-70
2021/11/02 11:23:32;;;;;;;3.42;2.17;;;;;;;11.63;85.70;98749.95;2842008;84;21013;-70
2021/11/02 11:27:51;;;;;;;2.75;2.00;;;;;;;11.61;87.27;98745.30;2841896;84;21044;-70
2021/11/02 11:31:59;;;;;;;3.12;2.65;;;;;;;11.66;86.00;98750.13;2842434;84;21009;-70
2021/11/02 11:36:04;;;;;;;1.72;1.62;;;;;;;11.71;85.41;98739.78;2841797;84;21044;-70
2021/11/02 11:40:09;;;;;;;1.65;1.35;;;;;;;11.69;84.14;98747.12;2841750;83;21049;-69
2021/11/02 11:44:13;;;;;;;1.65;1.02;;;;;;;11.71;84.04;98740.63;2842021;84;21095;-70
2021/11/02 11:48:23;;;;;;;1.37;1.30;;;;;;;11.84;84.74;98742.75;2841796;84;21025;-69
2021/11/02 11:52:25;;;;;;;1.80;0.98;;;;;;;11.94;83.27;98740.37;2841598;82;21005;-70
2021/11/02 11:56:33;;;;;;;2.27;1.57;;;;;;;12.09;83.18;98745.34;2841551;84;21076;-70
2021/11/02 12:00:39;;;;;;;1.05;0.60;;;;;;;12.21;82.26;98739.63;2849533;82;21057;-70
2021/11/02 12:04:51;;;;;;;0.85;0.50;;;;;;;12.36;82.07;98747.71;2853534;83;21114;-70
2021/11/02 12:09:07;;;;;;;1.20;0.82;;;;;;;12.45;80.99;98747.16;2831438;83;21021;-70
2021/11/02 12:13:10;;;;;;;0.90;0.70;;;;;;;12.51;80.31;98753.11;2854152;83;21261;-70
2021/11/02 12:17:26;;;;;;;0.95;0.70;;;;;;;12.63;79.58;98756.20;2854294;80;21040;-70
2021/11/02 12:21:32;;;;;;;1.82;0.50;;;;;;;12.70;80.04;98749.98;2853659;83;21077;-72
2021/11/02 12:25:37;;;;;;;0.93;0.83;;;;;;;12.74;78.54;98742.47;2853673;83;21020;-73
2021/11/02 12:29:49;;;;;;;1.05;0.98;;;;;;;12.74;78.54;98742.47;2853740;83;21464;-73
2021/11/02 12:33:53;;;;;;;3.35;1.45;;;;;;;12.87;79.10;98765.89;2853852;83;21028;-72
2021/11/02 12:37:58;;;;;;;2.87;1.80;;;;;;;12.99;79.54;98767.14;2854248;82;21119;-71
2021/11/02 12:42:02;;;;;;;3.03;1.97;;;;;;;13.05;79.71;98766.09;2854509;80;21087;-71
2021/11/02 12:46:04;;;;;;;3.00;2.55;;;;;;;13.17;78.26;98766.00;2853684;82;21099;-72
2021/11/02 12:50:08;;;;;;;3.30;1.82;;;;;;;13.25;78.19;98767.74;2853559;83;21039;-70
2021/11/02 12:54:17;;;;;;;4.05;2.15;;;;;;;13.32;77.77;98774.53;2853605;83;21472;-73
2021/11/02 12:58:23;;;;;;;2.20;1.92;;;;;;;13.45;78.39;98773.44;2857178;83;21033;-71
2021/11/02 13:02:48;;;;;;;2.10;1.50;;;;;;;13.60;78.04;98773.98;2862837;83;21067;-70
2021/11/02 13:06:54;;;;;;;2.05;1.40;;;;;;;13.56;76.02;98773.50;2861385;83;21006;-70
2021/11/02 13:11:06;;;;;;;4.15;2.40;;;;;;;13.70;76.99;98779.87;2862506;83;20988;-73
2021/11/02 13:15:11;;;;;;;6.17;2.95;;;;;;;13.67;76.27;98783.75;2861997;83;21111;-71
2021/11/02 13:19:15;;;;;;;2.75;2.12;;;;;;;13.61;76.54;98783.65;2862825;81;21036;-71
2021/11/02 13:23:18;;;;;;;4.72;2.12;;;;;;;13.53;75.27;98781.89;2862884;83;21021;-71
2021/11/02 13:27:37;;;;;;;2.50;1.30;;;;;;;13.53;76.42;98784.56;2862755;83;21030;-71
2021/11/02 13:31:39;;;;;;;1.00;0.60;;;;;;;13.53;76.12;98781.89;2862519;83;21059;-72
2021/11/02 13:35:44;;;;;;;1.50;0.93;;;;;;;13.46;76.22;98776.93;2862972;83;20997;-73
2021/11/02 13:40:01;;;;;;;5.73;3.80;;;;;;;13.44;75.88;98782.47;2863405;83;20992;-70
2021/11/02 13:44:06;;;;;;;3.37;1.67;;;;;;;13.37;75.37;98778.84;2862490;82;21048;-71
2021/11/02 13:48:08;;;;;;;1.77;1.22;;;;;;;13.25;75.83;98779.27;2863124;83;21052;-72
2021/11/02 13:52:13;;;;;;;1.17;0.90;;;;;;;13.15;76.02;98782.67;2862432;80;21028;-69
2021/11/02 13:56:18;;;;;;;2.40;1.95;;;;;;;13.08;77.34;98775.07;2841384;82;21077;-72
2021/11/02 14:00:20;;;;;;;1.60;1.50;;;;;;;12.98;78.59;98781.49;2815021;83;21030;-69
2021/11/02 14:04:33;;;;;;;2.72;2.00;;;;;;;12.87;79.40;98781.89;2827509;81;21069;-69
2021/11/02 14:08:34;;;;;;;10.15;6.45;;;;;;;12.82;79.73;98784.27;2850435;83;21355;-69
2021/11/02 14:12:54;;;;;;;16.65;8.70;;;;;;;12.82;79.51;98782.94;2854434;83;21002;-69
2021/11/02 14:16:57;;;;;;;10.88;5.12;;;;;;;12.83;78.98;98784.08;2853841;83;21399;-71
2021/11/02 14:20:58;;;;;;;8.38;6.05;;;;;;;12.86;78.96;98786.39;2854061;83;20983;-70
2021/11/02 14:25:32;;;;;;;4.92;3.60;;;;;;;12.92;79.34;98789.37;2854245;83;20912;-71
2021/11/02 14:29:57;;;;;;;16.00;8.43;;;;;;;13.03;78.62;98785.46;2854147;82;21053;-71
2021/11/02 14:33:59;;;;;;;7.35;4.50;;;;;;;13.15;79.30;98785.34;2853925;83;21025;-69
2021/11/02 14:38:09;;;;;;;3.60;2.67;;;;;;;13.18;80.70;98791.69;2853822;83;21002;-70
2021/11/02 14:42:16;;;;;;;4.37;3.12;;;;;;;13.23;79.83;98787.97;2853763;83;21022;-72
2021/11/02 14:46:20;;;;;;;6.85;4.92;;;;;;;13.31;80.94;98790.23;2847949;82;21076;-72
2021/11/02 14:50:35;;;;;;;9.65;6.62;;;;;;;13.36;80.27;98789.17;2853901;83;21053;-73
2021/11/02 14:54:44;;;;;;;7.72;5.08;;;;;;;13.33;79.97;98777.03;2852982;83;21026;-70
2021/11/02 14:58:50;;;;;;;3.62;2.58;;;;;;;13.28;80.70;98781.57;2853754;83;21453;-72
2021/11/02 15:02:52;;;;;;;;;;;;;;;13.35;81.40;98780.84;2866056;82;21099;-69
2021/11/02 15:06:57;;;;;;;5.80;2.20;;;;;;;13.38;81.14;98779.98;2879157;81;20154;-70
2021/11/02 15:11:02;;;;;;;4.67;2.58;;;;;;;13.39;80.40;98786.16;2879092;81;20997;-70
2021/11/02 15:15:05;;;;;;;1.75;1.32;;;;;;;13.37;80.06;98785.00;2884919;82;21064;-69
2021/11/02 15:19:07;;;;;;;2.05;1.15;;;;;;;13.31;79.68;98792.90;2878989;82;21370;-70
2021/11/02 15:23:09;;;;;;;1.42;1.00;;;;;;;13.24;80.02;98801.64;2879187;82;21025;-70
2021/11/02 15:27:18;;;;;;;2.30;1.67;;;;;;;13.23;80.62;98809.81;2878955;82;20997;-72
2021/11/02 15:31:23;;;;;;;1.70;1.30;;;;;;;13.16;80.95;98811.03;2879014;82;21040;-70
2021/11/02 15:35:27;;;;;;;4.93;2.13;;;;;;;13.02;81.26;98816.64;2879665;82;20993;-69
2021/11/02 15:39:29;;;;;;;2.60;1.45;;;;;;;13.02;81.89;98817.98;2879382;81;21068;-69
2021/11/02 15:43:30;;;;;;;4.95;2.95;;;;;;;13.10;82.34;98817.94;2856076;82;21294;-69
2021/11/02 15:47:36;;;;;;;4.75;2.40;;;;;;;13.02;82.34;98819.84;2820015;84;21045;-71
2021/11/02 15:51:41;;;;;;;2.83;1.82;;;;;;;12.92;82.35;98816.88;2820508;84;21049;-70
2021/11/02 15:55:44;;;;;;;3.75;2.90;;;;;;;12.99;82.72;98823.19;2820680;84;21401;-69
2021/11/02 15:59:59;;;;;;;56.02;31.30;;;;;;;13.08;82.23;98815.11;2823767;84;21048;-69
2021/11/02 16:04:14;;;;;;;55.58;36.17;;;;;;;13.17;81.62;98818.55;2851500;83;21403;-70
2021/11/02 16:08:22;;;;;;;23.83;16.60;;;;;;;13.13;80.72;98830.08;2778519;80;21129;-70
2021/11/02 16:12:36;;;;;;;22.50;14.90;;;;;;;13.04;81.00;98836.50;2815474;84;21065;-69
2021/11/02 16:16:38;;;;;;;72.90;45.33;;;;;;;12.93;81.88;98845.23;2815475;83;21037;-69
2021/11/02 16:20:42;;;;;;;42.08;28.00;;;;;;;12.80;82.78;98845.81;2815137;83;21134;-76
2021/11/02 16:24:44;;;;;;;19.50;11.60;;;;;;;12.59;84.40;98845.59;2814110;84;21148;-78
2021/11/02 16:28:46;;;;;;;25.48;14.70;;;;;;;12.38;85.40;98849.20;2813419;84;20990;-77
2021/11/02 16:32:51;;;;;;;27.42;17.23;;;;;;;12.17;86.11;98856.43;2813395;84;21062;-78
2021/11/02 16:36:55;;;;;;;28.38;18.00;;;;;;;11.97;87.32;98854.12;2813167;84;21062;-74
2021/11/02 16:41:04;;;;;;;30.80;19.45;;;;;;;11.94;87.06;98854.95;2814081;83;21105;-80
2021/11/02 16:45:15;;;;;;;29.48;20.30;;;;;;;11.96;87.52;98859.60;2814169;84;21070;-75
2021/11/02 16:49:26;;;;;;;42.05;24.75;;;;;;;11.80;89.15;98866.65;2814619;84;21035;-77
2021/11/02 16:53:30;;;;;;;62.65;37.70;;;;;;;11.73;88.70;98859.50;2814085;84;21062;-77
2021/11/02 16:57:31;;;;;;;89.20;55.55;;;;;;;11.69;88.82;98859.84;2813551;84;21022;-77
2021/11/02 17:01:34;;;;;;;65.62;29.80;;;;;;;11.62;89.06;98867.33;2815074;84;21066;-75
2021/11/02 17:05:39;;;;;;;41.28;24.70;;;;;;;11.62;88.48;98869.48;2815144;84;21039;-74
2021/11/02 17:09:41;;;;;;;44.58;28.80;;;;;;;11.60;88.17;98874.14;2843383;83;21057;-73
2021/11/02 17:13:43;;;;;;;31.65;20.65;;;;;;;11.58;88.08;98880.95;2873237;83;21006;-77
2021/11/02 17:17:46;;;;;;;24.92;13.68;;;;;;;11.50;88.65;98880.97;2873220;83;20994;-73
2021/11/02 17:21:51;;;;;;;20.50;13.10;;;;;;;11.38;89.10;98880.95;2872828;83;21062;-77
2021/11/02 17:25:53;;;;;;;16.35;11.28;;;;;;;11.35;88.81;98881.29;2872983;83;21058;-78
2021/11/02 17:29:55;;;;;;;15.15;11.68;;;;;;;11.31;88.31;98886.62;2873103;83;21057;-77
2021/11/02 17:33:58;;;;;;;24.47;16.70;;;;;;;11.27;87.83;98890.95;2885930;82;21063;-75
2021/11/02 17:38:02;;;;;;;38.48;28.23;;;;;;;11.28;87.50;98889.95;2892781;82;21018;-72
2021/11/02 17:42:08;;;;;;;57.10;40.78;;;;;;;11.32;86.55;98889.61;2892097;82;21066;-73
2021/11/02 17:46:12;;;;;;;52.45;33.30;;;;;;;11.32;85.76;98894.94;2891686;82;21011;-80
2021/11/02 17:50:16;;;;;;;42.62;28.80;;;;;;;11.35;85.45;98901.25;2891360;82;21039;-79
2021/11/02 17:54:19;;;;;;;48.17;33.50;;;;;;;11.33;84.56;98897.93;2891443;82;21055;-75
2021/11/02 17:58:22;;;;;;;46.90;31.15;;;;;;;11.20;84.50;98899.75;2892131;82;21015;-80
2021/11/02 18:02:25;;;;;;;38.88;25.57;;;;;;;11.19;84.50;98895.42;2886282;82;21124;-82
2021/11/02 18:06:28;;;;;;;29.60;22.02;;;;;;;11.13;84.20;98894.24;2860777;83;21087;-75
2021/11/02 18:10:30;;;;;;;34.13;23.25;;;;;;;11.06;83.93;98907.88;2838114;83;21055;-77
2021/11/02 18:14:33;;;;;;;35.85;23.75;;;;;;;10.99;83.62;98903.19;2838384;83;21121;-73
2021/11/02 18:18:37;;;;;;;39.53;27.13;;;;;;;10.90;83.90;98905.98;2838684;83;21023;-80
2021/11/02 18:22:43;;;;;;;61.70;35.45;;;;;;;10.85;83.81;98901.17;2838696;83;21083;-79
2021/11/02 18:26:44;;;;;;;79.17;48.80;;;;;;;10.69;84.37;98909.91;2839137;83;20980;-75
2021/11/02 18:30:48;;;;;;;116.42;69.65;;;;;;;10.54;85.00;98907.88;2839338;83;21063;-73
2021/11/02 18:34:52;;;;;;;113.45;64.82;;;;;;;10.47;85.41;98917.98;2838707;83;21015;-76
2021/11/02 18:38:56;;;;;;;106.27;61.65;;;;;;;10.46;85.70;98918.45;2838256;84;21052;-80
2021/11/02 18:42:58;;;;;;;61.08;38.30;;;;;;;10.45;85.80;98921.30;2838304;83;21082;-72
2021/11/02 18:47:01;;;;;;;41.53;23.67;;;;;;;10.41;86.39;98925.57;2837695;84;21047;-72
2021/11/02 18:51:07;;;;;;;34.25;22.37;;;;;;;10.39;86.76;98924.87;2837763;84;21599;-72
2021/11/02 18:55:10;;;;;;;50.48;24.60;;;;;;;10.45;86.40;98927.94;2838303;84;21071;-73
2021/11/02 18:59:14;;;;;;;34.75;24.63;;;;;;;10.48;86.58;98926.29;2838069;84;21034;-74
2021/11/02 19:03:16;;;;;;;37.60;22.52;;;;;;;10.50;86.60;98929.62;2837896;84;21098;-75
2021/11/02 19:07:18;;;;;;;46.68;25.62;;;;;;;10.51;86.60;98935.27;2833775;82;21059;-75
2021/11/02 19:11:20;;;;;;;51.48;30.15;;;;;;;10.55;86.12;98931.30;2834060;82;21553;-75
2021/11/02 19:15:22;;;;;;;57.03;33.58;;;;;;;10.48;86.07;98935.08;2834160;84;21108;-76
2021/11/02 19:19:23;;;;;;;53.00;33.83;;;;;;;10.49;85.79;98937.26;2833765;84;21076;-75
2021/11/02 19:23:25;;;;;;;58.60;41.15;;;;;;;10.48;85.58;98932.94;2832934;84;21080;-69
2021/11/02 19:27:29;;;;;;;72.97;46.73;;;;;;;10.53;85.77;98937.27;2832660;84;21037;-76
2021/11/02 19:31:37;;;;;;;118.50;77.67;;;;;;;10.65;85.33;98928.03;2835669;83;21127;-74
2021/11/02 19:35:38;;;;;;;113.12;69.42;;;;;;;10.74;84.76;98934.70;2854952;82;20987;-73
2021/11/02 19:39:39;;;;;;;92.75;58.92;;;;;;;10.69;84.14;98940.49;2856670;82;21070;-68
2021/11/02 19:43:41;;;;;;;46.45;32.45;;;;;;;10.54;84.08;98938.94;2855996;83;21094;-76
2021/11/02 19:47:46;;;;;;;39.65;25.82;;;;;;;10.50;84.21;98935.75;2830555;82;21630;-74
2021/11/02 19:51:48;;;;;;;48.48;28.42;;;;;;;10.49;84.35;98943.91;2822719;84;21011;-77
2021/11/02 19:55:50;;;;;;;38.95;24.50;;;;;;;10.49;84.14;98942.58;2832973;82;21049;-78
2021/11/02 19:59:53;;;;;;;47.15;27.60;;;;;;;10.46;83.89;98942.90;2899216;82;21075;-75
2021/11/02 20:03:56;;;;;;;53.42;30.60;;;;;;;10.42;84.06;98942.37;2848399;82;34622;-76
2021/11/02 20:08:06;;;;;;;41.23;23.95;;;;;;;10.36;84.09;98946.97;2823066;82;21012;-75
2021/11/02 20:12:16;;;;;;;31.73;19.07;;;;;;;10.39;84.25;98938.16;2823463;84;21059;-76
2021/11/02 20:16:19;;;;;;;24.37;16.85;;;;;;;10.42;84.12;98942.37;2823079;84;21083;-73
2021/11/02 20:20:22;;;;;;;26.62;16.90;;;;;;;10.39;84.22;98940.81;2823062;84;21043;-79
2021/11/02 20:24:31;;;;;;;23.70;12.82;;;;;;;10.34;84.56;98940.46;2822565;83;21040;-79
2021/11/02 20:28:32;;;;;;;19.98;14.38;;;;;;;10.36;84.84;98949.11;2823055;84;21012;-75
2021/11/02 20:32:36;;;;;;;30.75;16.25;;;;;;;10.39;84.99;98955.44;2860664;79;21050;-71
2021/11/02 20:36:40;;;;;;;21.33;13.32;;;;;;;10.34;85.31;98956.41;2857186;81;21058;-75
2021/11/02 20:40:46;;;;;;;22.98;13.43;;;;;;;10.36;84.82;98953.09;2857528;81;21019;-72
2021/11/02 20:44:53;;;;;;;21.02;14.07;;;;;;;10.37;84.90;98961.41;2857823;83;21022;-72
2021/11/02 20:49:05;;;;;;;21.40;13.98;;;;;;;10.33;84.81;98961.91;2857327;83;21054;-76
2021/11/02 20:53:08;;;;;;;20.65;14.45;;;;;;;10.28;85.12;98968.50;2843467;82;21013;-72
2021/11/02 20:57:12;;;;;;;16.77;11.12;;;;;;;10.27;85.01;98969.48;2835884;84;21025;-76
2021/11/02 21:01:15;;;;;;;22.13;15.65;;;;;;;10.25;85.30;98969.33;2835069;82;21088;-72
2021/11/02 21:05:17;;;;;;;21.35;13.55;;;;;;;10.22;85.81;98975.77;2826326;81;21051;-70
2021/11/02 21:09:22;;;;;;;19.65;13.22;;;;;;;10.18;85.97;98974.91;2845531;83;20980;-71
2021/11/02 21:13:27;;;;;;;16.32;11.40;;;;;;;10.27;85.64;98972.66;2856071;83;20975;-72
2021/11/02 21:17:34;;;;;;;15.60;10.80;;;;;;;10.32;85.46;98972.17;2856295;83;20967;-73
2021/11/02 21:21:38;;;;;;;13.20;9.85;;;;;;;10.38;85.00;98971.05;2856485;80;21014;-72
2021/11/02 21:25:41;;;;;;;17.87;11.88;;;;;;;10.39;84.71;98970.06;2856590;83;20984;-74
2021/11/02 21:29:45;;;;;;;16.73;11.83;;;;;;;10.43;84.64;98968.81;2848096;82;21117;-70
2021/11/02 21:33:51;;;;;;;15.55;10.85;;;;;;;10.48;84.71;98973.63;2791023;85;21036;-70
2021/11/02 21:37:52;;;;;;;13.50;8.75;;;;;;;10.57;84.45;98975.36;2815676;84;21011;-70
2021/11/02 21:42:00;;;;;;;20.12;11.93;;;;;;;10.64;84.38;98983.54;2815210;83;21053;-70
2021/11/02 21:46:04;;;;;;;14.85;10.30;;;;;;;10.61;84.51;98977.22;2815235;84;21014;-70
2021/11/02 21:50:14;;;;;;;17.50;10.32;;;;;;;10.58;85.06;98974.84;2815198;83;20971;-70
2021/11/02 21:54:20;;;;;;;10.23;8.53;;;;;;;10.59;85.18;98976.52;2815110;84;21106;-70
2021/11/02 21:58:30;;;;;;;15.25;11.55;;;;;;;10.62;85.29;98975.38;2841016;84;21006;-70
2021/11/02 22:02:34;;;;;;;10.13;9.08;;;;;;;10.64;85.28;98972.06;2815050;84;21054;-70
2021/11/02 22:06:36;;;;;;;21.85;11.63;;;;;;;10.64;85.03;98972.91;2815529;84;20995;-70
2021/11/02 22:10:37;;;;;;;13.13;10.20;;;;;;;10.62;84.92;98970.05;2815123;84;21054;-70
2021/11/02 22:14:41;;;;;;;15.30;10.88;;;;;;;10.62;84.87;98973.56;2815438;84;21046;-70
2021/11/02 22:18:43;;;;;;;16.50;10.05;;;;;;;10.63;84.81;98971.23;2815322;84;21069;-70
2021/11/02 22:22:45;;;;;;;13.20;9.68;;;;;;;10.63;84.87;98979.22;2815427;84;21094;-70
2021/11/02 22:26:50;;;;;;;16.55;11.63;;;;;;;10.62;84.68;98982.02;2815644;83;21078;-71
2021/11/02 22:30:55;;;;;;;16.55;12.00;;;;;;;10.62;84.51;98986.02;2812609;84;21046;-70
2021/11/02 22:34:58;;;;;;;13.78;9.48;;;;;;;10.63;83.91;98982.36;2795169;84;21053;-70
2021/11/02 22:39:00;;;;;;;14.45;8.65;;;;;;;10.58;83.37;98978.84;2812526;84;21065;-70
2021/11/02 22:43:03;;;;;;;17.37;10.10;;;;;;;10.57;83.04;98983.34;2812255;84;21086;-70
2021/11/02 22:47:06;;;;;;;12.55;10.60;;;;;;;10.60;82.92;98982.16;2812736;84;21022;-70
2021/11/02 22:51:08;;;;;;;13.10;10.50;;;;;;;10.62;81.89;98981.54;2812761;84;21006;-70
2021/11/02 22:55:12;;;;;;;17.75;9.83;;;;;;;10.56;81.60;98986.14;2812837;84;21001;-70
2021/11/02 22:59:15;;;;;;;13.65;9.63;;;;;;;10.45;81.68;98989.91;2812918;84;21049;-70
2021/11/02 23:03:20;;;;;;;12.65;10.53;;;;;;;10.37;81.71;98991.98;2812873;84;20999;-70
2021/11/02 23:07:22;;;;;;;11.40;10.20;;;;;;;10.23;82.15;98992.06;2812659;84;21033;-70
2021/11/02 23:11:24;;;;;;;11.50;10.28;;;;;;;10.06;82.63;98990.27;2812430;84;20983;-70
2021/11/02 23:15:26;;;;;;;13.50;10.60;;;;;;;9.95;82.96;98992.67;2812494;84;20998;-70
2021/11/02 23:19:27;;;;;;;16.45;10.55;;;;;;;9.84;83.12;98999.06;2812477;84;21109;-70
2021/11/02 23:23:59;;;;;;;18.35;12.23;;;;;;;9.80;83.41;98995.86;2812628;84;21038;-69
2021/11/02 23:28:03;;;;;;;17.27;11.43;;;;;;;9.77;83.30;98994.84;2812325;84;20990;-70
2021/11/02 23:32:07;;;;;;;14.43;10.68;;;;;;;9.64;83.45;99003.20;2812409;84;21010;-70
2021/11/02 23:36:14;;;;;;;19.20;13.28;;;;;;;9.58;83.41;99007.28;2812455;84;21089;-70
2021/11/02 23:40:21;;;;;;;14.38;10.85;;;;;;;9.52;83.63;99001.27;2812251;84;21014;-70
2021/11/02 23:44:24;;;;;;;18.15;12.93;;;;;;;9.50;83.38;99011.67;2810880;84;21022;-70
2021/11/02 23:48:27;;;;;;;18.17;12.37;;;;;;;9.48;83.25;99017.16;2812731;84;20963;-70
2021/11/02 23:52:29;;;;;;;16.02;12.18;;;;;;;9.36;82.55;99019.19;2812681;84;20971;-70
2021/11/02 23:56:30;;;;;;;18.23;11.38;;;;;;;9.35;82.65;99025.95;2812532;84;21073;-70
